createdAt,value
2023-04-05T00:02:01.690Z,99992.14
2023-04-05T00:04:34.982Z,99982.55
2023-04-05T00:07:08.558Z,99992.28
2023-04-05T00:09:40.587Z,99992.40
2023-04-05T00:12:12.869Z,99984.61
2023-04-05T00:14:44.846Z,99987.28
2023-04-05T00:17:17.230Z,99988.20
2023-04-05T00:19:50.826Z,99990.09
2023-04-05T00:22:24.442Z,99991.04
2023-04-05T00:24:56.492Z,99978.95
2023-04-05T00:27:28.603Z,99986.78
2023-04-05T00:30:01.422Z,99986.07
2023-04-05T00:32:34.755Z,99980.95
2023-04-05T00:35:07.509Z,99986.33
2023-04-05T00:37:39.487Z,99988.99
2023-04-05T00:40:12.130Z,99985.57
2023-04-05T00:42:44.607Z,99989.16
2023-04-05T00:45:16.842Z,99985.07
2023-04-05T00:47:49.120Z,99988.66
2023-04-05T00:50:21.967Z,99981.01
2023-04-05T00:52:54.298Z,99990.60
2023-04-05T00:55:27.732Z,99995.05
2023-04-05T00:57:59.798Z,99993.37
2023-04-05T01:00:32.164Z,99998.69
2023-04-05T01:03:05.984Z,99997.15
2023-04-05T01:05:54.282Z,100001.61
2023-04-05T01:08:40.977Z,100003.50
2023-04-05T01:11:14.546Z,99999.30
2023-04-05T01:13:49.544Z,100001.19
2023-04-05T01:16:21.928Z,100005.59
2023-04-05T01:18:56.757Z,100003.09
2023-04-05T01:21:40.648Z,100002.36
2023-04-05T01:24:50.956Z,100001.69
2023-04-05T01:27:26.197Z,100005.31
2023-04-05T01:30:16.137Z,100002.91
2023-04-05T01:33:08.097Z,99997.86
2023-04-05T01:35:54.830Z,100002.27
2023-04-05T01:38:28.566Z,99998.06
2023-04-05T01:41:00.823Z,100002.45
2023-04-05T01:43:32.905Z,100005.16
2023-04-05T01:46:06.443Z,99998.25
2023-04-05T01:48:38.626Z,99996.60
2023-04-05T01:51:10.811Z,99999.27
2023-04-05T01:53:43.022Z,100001.88
2023-04-05T01:56:15.215Z,100008.05
2023-04-05T01:58:47.276Z,100005.59
2023-04-05T02:01:19.641Z,100002.25
2023-04-05T02:03:51.817Z,100004.05
2023-04-05T02:06:24.525Z,100005.83
2023-04-05T02:08:56.759Z,100011.14
2023-04-05T02:11:28.833Z,100017.31
2023-04-05T02:14:02.649Z,100016.50
2023-04-05T02:16:36.503Z,100023.59
2023-04-05T02:19:08.481Z,100028.08
2023-04-05T02:21:41.039Z,100029.00
2023-04-05T02:24:13.123Z,100029.12
2023-04-05T02:26:45.277Z,100030.91
2023-04-05T02:29:17.295Z,100037.95
2023-04-05T02:31:49.350Z,100037.19
2023-04-05T02:34:23.165Z,100040.75
2023-04-05T02:36:56.208Z,100042.61
2023-04-05T02:39:29.239Z,100041.01
2023-04-05T02:42:01.430Z,100042.92
2023-04-05T02:44:33.729Z,100044.83
2023-04-05T02:47:06.251Z,100050.97
2023-04-05T02:49:39.616Z,100051.88
2023-04-05T02:52:13.405Z,100051.88
2023-04-05T02:54:47.062Z,100049.27
2023-04-05T02:57:20.156Z,100051.09
2023-04-05T02:59:53.784Z,100051.27
2023-04-05T03:02:26.084Z,100056.59
2023-04-05T03:04:58.392Z,100059.25
2023-04-05T03:07:30.789Z,100065.30
2023-04-05T03:10:03.504Z,100063.64
2023-04-05T03:12:35.739Z,100067.11
2023-04-05T03:15:09.031Z,100069.80
2023-04-05T03:17:44.485Z,100070.63
2023-04-05T03:20:16.461Z,100070.72
2023-04-05T03:22:48.758Z,100071.03
2023-04-05T03:25:22.044Z,100066.20
2023-04-05T03:27:55.753Z,100073.16
2023-04-05T03:30:30.894Z,100074.89
2023-04-05T03:33:04.956Z,100080.81
2023-04-05T03:35:41.490Z,100081.59
2023-04-05T03:38:14.933Z,100079.65
2023-04-05T03:40:54.769Z,100083.78
2023-04-05T03:43:27.949Z,100090.61
2023-04-05T03:46:00.875Z,100090.52
2023-04-05T03:48:34.538Z,100098.30
2023-04-05T03:51:08.133Z,100095.56
2023-04-05T03:53:40.985Z,100098.95
2023-04-05T03:56:13.756Z,100104.08
2023-04-05T03:58:52.603Z,100095.25
2023-04-05T04:01:26.253Z,100100.25
2023-04-05T04:03:59.974Z,100102.56
2023-04-05T04:06:32.914Z,100101.46
2023-04-05T04:09:06.377Z,100104.72
2023-04-05T04:11:38.360Z,100107.19
2023-04-05T04:14:11.903Z,100113.84
2023-04-05T04:17:00.412Z,100116.18
2023-04-05T04:19:45.940Z,100108.30
2023-04-05T04:22:22.764Z,100111.68
2023-04-05T04:24:56.448Z,100115.94
2023-04-05T04:27:44.937Z,100114.88
2023-04-05T04:30:22.790Z,100119.09
2023-04-05T04:32:58.314Z,100124.04
2023-04-05T04:35:37.057Z,100128.94
2023-04-05T04:38:22.477Z,100126.86
2023-04-05T04:41:15.264Z,100128.13
2023-04-05T04:43:49.179Z,100132.95
2023-04-05T04:46:39.522Z,100127.39
2023-04-05T04:49:13.634Z,100134.00
2023-04-05T04:51:47.706Z,100132.98
2023-04-05T04:54:21.065Z,100137.23
2023-04-05T04:56:53.152Z,100132.01
2023-04-05T04:59:25.698Z,100131.77
2023-04-05T05:01:58.678Z,100142.73
2023-04-05T05:04:31.896Z,100140.77
2023-04-05T05:07:03.925Z,100144.86
2023-04-05T05:09:37.794Z,100144.56
2023-04-05T05:12:09.963Z,100145.87
2023-04-05T05:14:42.124Z,100151.71
2023-04-05T05:17:14.490Z,100155.71
2023-04-05T05:19:47.713Z,100159.97
2023-04-05T05:22:20.512Z,100159.80
2023-04-05T05:24:53.162Z,100157.73
2023-04-05T05:27:25.272Z,100153.10
2023-04-05T05:29:57.468Z,100165.87
2023-04-05T05:32:30.257Z,100157.66
2023-04-05T05:35:03.154Z,100157.07
2023-04-05T05:37:36.722Z,100153.94
2023-04-05T05:40:10.511Z,100156.91
2023-04-05T05:42:43.078Z,100162.39
2023-04-05T05:45:15.273Z,100162.86
2023-04-05T05:47:47.658Z,100158.20
2023-04-05T05:50:20.904Z,100159.51
2023-04-05T05:52:53.064Z,100164.22
2023-04-05T05:55:25.221Z,100160.85
2023-04-05T05:57:57.632Z,100162.42
2023-04-05T06:00:30.076Z,100164.30
2023-04-05T06:03:02.649Z,100162.80
2023-04-05T06:05:34.986Z,100163.80
2023-04-05T06:08:07.195Z,100160.48
2023-04-05T06:10:40.160Z,100158.19
2023-04-05T06:13:12.584Z,100160.29
2023-04-05T06:15:45.187Z,100169.45
2023-04-05T06:18:18.016Z,100171.92
2023-04-05T06:20:50.031Z,100168.11
2023-04-05T06:23:22.561Z,100166.06
2023-04-05T06:25:56.867Z,100166.06
2023-04-05T06:28:29.773Z,100168.02
2023-04-05T06:31:02.122Z,100169.56
2023-04-05T06:33:34.254Z,100175.42
2023-04-05T06:36:07.899Z,100180.53
2023-04-05T06:38:40.234Z,100173.45
2023-04-05T06:41:12.828Z,100179.14
2023-04-05T06:43:45.756Z,100186.28
2023-04-05T06:46:17.921Z,100175.94
2023-04-05T06:48:51.927Z,100180.31
2023-04-05T06:51:25.534Z,100174.53
2023-04-05T06:53:57.993Z,100176.96
2023-04-05T06:56:30.633Z,100178.77
2023-04-05T06:59:03.151Z,100183.02
2023-04-05T07:01:36.054Z,100182.84
2023-04-05T07:04:08.492Z,100190.13
2023-04-05T07:06:41.014Z,100183.05
2023-04-05T07:09:13.713Z,100183.91
2023-04-05T07:11:46.346Z,100185.77
2023-04-05T07:14:18.757Z,100184.36
2023-04-05T07:16:52.937Z,100183.84
2023-04-05T07:19:24.914Z,100177.88
2023-04-05T07:21:57.413Z,100182.81
2023-04-05T07:24:29.481Z,100185.78
2023-04-05T07:27:03.190Z,100189.45
2023-04-05T07:29:36.884Z,100189.45
2023-04-05T07:32:09.618Z,100184.02
2023-04-05T07:34:41.857Z,100193.94
2023-04-05T07:37:14.293Z,100192.75
2023-04-05T07:39:46.746Z,100194.44
2023-04-05T07:42:21.040Z,100198.69
2023-04-05T07:44:53.193Z,100190.69
2023-04-05T07:47:25.570Z,100194.68
2023-04-05T07:49:58.129Z,100201.31
2023-04-05T07:52:30.956Z,100205.95
2023-04-05T07:55:03.538Z,100202.86
2023-04-05T07:57:36.605Z,100205.98
2023-04-05T08:00:13.587Z,100196.29
2023-04-05T08:02:46.096Z,100195.52
2023-04-05T08:05:18.537Z,100198.16
2023-04-05T08:07:51.171Z,100194.77
2023-04-05T08:10:23.518Z,100197.67
2023-04-05T08:12:55.582Z,100196.92
2023-04-05T08:15:28.509Z,100198.70
2023-04-05T08:18:01.096Z,100206.78
2023-04-05T08:20:34.871Z,100199.16
2023-04-05T08:23:08.279Z,100203.74
2023-04-05T08:25:42.542Z,100204.14
2023-04-05T08:28:15.042Z,100199.33
2023-04-05T08:30:47.515Z,100208.59
2023-04-05T08:33:20.035Z,100203.89
2023-04-05T08:35:52.503Z,100217.41
2023-04-05T08:38:26.586Z,100212.69
2023-04-05T08:41:01.208Z,100210.63
2023-04-05T08:43:58.710Z,100218.08
2023-04-05T08:46:35.912Z,100214.43
2023-04-05T08:49:09.408Z,100216.52
2023-04-05T08:51:41.807Z,100206.73
2023-04-05T08:54:14.889Z,100206.58
2023-04-05T08:56:52.100Z,100208.55
2023-04-05T08:59:24.898Z,100207.88
2023-04-05T09:01:59.902Z,100204.10
2023-04-05T09:04:35.885Z,100198.62
2023-04-05T09:07:10.238Z,100202.56
2023-04-05T09:09:45.362Z,100202.84
2023-04-05T09:12:17.895Z,100200.36
2023-04-05T09:14:51.668Z,100203.82
2023-04-05T09:17:25.274Z,100209.14
2023-04-05T09:19:57.461Z,100206.56
2023-04-05T09:22:29.961Z,100208.15
2023-04-05T09:25:02.913Z,100200.98
2023-04-05T09:27:35.029Z,100208.84
2023-04-05T09:30:10.257Z,100202.72
2023-04-05T09:32:45.445Z,100203.67
2023-04-05T09:35:40.726Z,100205.59
2023-04-05T09:38:13.661Z,100207.38
2023-04-05T09:40:48.383Z,100192.13
2023-04-05T09:43:43.095Z,100205.26
2023-04-05T09:46:34.567Z,100207.95
2023-04-05T09:49:08.142Z,100201.44
2023-04-05T09:51:41.064Z,100203.32
2023-04-05T09:54:15.078Z,100201.05
2023-04-05T09:56:50.132Z,100195.06
2023-04-05T09:59:22.774Z,100198.52
2023-04-05T10:01:55.127Z,100195.92
2023-04-05T10:04:27.212Z,100194.55
2023-04-05T10:06:59.836Z,100192.31
2023-04-05T10:09:33.970Z,100189.81
2023-04-05T10:12:08.119Z,100185.86
2023-04-05T10:14:40.954Z,100193.98
2023-04-05T10:17:16.780Z,100179.27
2023-04-05T10:20:00.892Z,100190.39
2023-04-05T10:22:45.131Z,100204.68
2023-04-05T10:25:29.119Z,100193.67
2023-04-05T10:28:15.386Z,100187.89
2023-04-05T10:30:50.090Z,100182.47
2023-04-05T10:33:25.087Z,100191.53
2023-04-05T10:36:16.505Z,100191.53
2023-04-05T10:39:04.619Z,100186.58
2023-04-05T10:41:40.088Z,100186.58
2023-04-05T10:44:25.074Z,100189.95
2023-04-05T10:46:47.378Z,100184.38
2023-04-05T10:49:43.923Z,100186.33
2023-04-05T10:52:17.868Z,100186.55
2023-04-05T10:54:51.735Z,100186.90
2023-04-05T10:57:25.601Z,100182.30
2023-04-05T10:59:59.446Z,100190.13
2023-04-05T11:02:33.817Z,100189.91
2023-04-05T11:05:06.852Z,100185.70
2023-04-05T11:07:45.919Z,100185.70
2023-04-05T11:10:19.707Z,100191.98
2023-04-05T11:12:56.335Z,100186.33
2023-04-05T11:15:33.509Z,100182.92
2023-04-05T11:18:08.656Z,100184.98
2023-04-05T11:20:46.656Z,100174.35
2023-04-05T11:23:21.737Z,100182.22
2023-04-05T11:25:59.858Z,100179.33
2023-04-05T11:28:40.878Z,100179.44
2023-04-05T11:31:19.728Z,100179.78
2023-04-05T11:33:59.100Z,100174.58
2023-04-05T11:36:41.600Z,100172.78
2023-04-05T11:39:24.234Z,100177.47
2023-04-05T11:42:02.325Z,100180.62
2023-04-05T11:44:52.641Z,100168.64
2023-04-05T11:47:24.915Z,100168.41
2023-04-05T11:49:57.084Z,100164.19
2023-04-05T11:52:29.872Z,100165.39
2023-04-05T11:55:03.674Z,100162.50
2023-04-05T11:57:37.869Z,100166.47
2023-04-05T12:00:11.248Z,100156.84
2023-04-05T12:02:45.070Z,100156.34
2023-04-05T12:05:17.716Z,100158.28
2023-04-05T12:07:57.234Z,100156.13
2023-04-05T12:10:30.967Z,100149.09
2023-04-05T12:13:03.872Z,100150.08
2023-04-05T12:15:41.244Z,100144.91
2023-04-05T12:18:16.814Z,100153.13
2023-04-05T12:20:49.543Z,100147.18
2023-04-05T12:23:23.035Z,100148.11
2023-04-05T12:25:57.784Z,100144.55
2023-04-05T12:28:49.363Z,100142.45
2023-04-05T12:31:43.054Z,100139.89
2023-04-05T12:34:16.558Z,100129.89
2023-04-05T12:36:48.941Z,100135.63
2023-04-05T12:39:22.696Z,100134.44
2023-04-05T12:42:01.346Z,100137.60
2023-04-05T12:44:35.764Z,100126.88
2023-04-05T12:47:09.403Z,100138.84
2023-04-05T12:49:41.432Z,100131.32
2023-04-05T12:52:14.889Z,100120.03
2023-04-05T12:54:50.124Z,100128.28
2023-04-05T12:57:35.685Z,100127.67
2023-04-05T13:00:10.440Z,100137.93
2023-04-05T13:02:42.717Z,100133.09
2023-04-05T13:05:14.843Z,100124.41
2023-04-05T13:07:47.495Z,100119.00
2023-04-05T13:10:21.636Z,100126.55
2023-04-05T13:12:54.168Z,100115.70
2023-04-05T13:15:27.319Z,100121.52
2023-04-05T13:17:59.627Z,100121.94
2023-04-05T13:20:32.160Z,100115.65
2023-04-05T13:23:04.135Z,100117.95
2023-04-05T13:25:36.221Z,100121.92
2023-04-05T13:28:09.180Z,100111.91
2023-04-05T13:30:41.245Z,100110.55
2023-04-05T13:33:13.315Z,100122.78
2023-04-05T13:35:46.181Z,100121.01
2023-04-05T13:38:18.391Z,100126.89
2023-04-05T13:40:50.255Z,100118.39
2023-04-05T13:43:22.604Z,100115.02
2023-04-05T13:45:54.983Z,100116.17
2023-04-05T13:48:27.269Z,100120.20
2023-04-05T13:50:59.315Z,100125.03
2023-04-05T13:53:31.732Z,100126.28
2023-04-05T13:56:03.699Z,100120.59
2023-04-05T13:58:36.230Z,100117.95
2023-04-05T14:01:08.644Z,100123.70
2023-04-05T14:03:41.721Z,100118.05
2023-04-05T14:06:13.922Z,100120.04
2023-04-05T14:08:46.274Z,100119.63
2023-04-05T14:11:18.307Z,100124.41
2023-04-05T14:13:51.650Z,100128.43
2023-04-05T14:16:24.576Z,100133.47
2023-04-05T14:18:56.732Z,100135.80
2023-04-05T14:21:29.288Z,100138.80
2023-04-05T14:24:01.838Z,100141.88
2023-04-05T14:26:35.542Z,100142.34
2023-04-05T14:29:07.645Z,100146.40
2023-04-05T14:31:40.439Z,100141.41
2023-04-05T14:34:13.715Z,100144.36
2023-04-05T14:36:46.062Z,100143.05
2023-04-05T14:39:18.726Z,100149.26
2023-04-05T14:41:53.034Z,100157.11
2023-04-05T14:44:27.141Z,100159.69
2023-04-05T14:46:59.472Z,100172.61
2023-04-05T14:49:31.674Z,100163.59
2023-04-05T14:52:04.153Z,100165.44
2023-04-05T14:54:36.248Z,100164.69
2023-04-05T14:57:08.490Z,100172.45
2023-04-05T14:59:40.804Z,100174.93
2023-04-05T15:02:13.200Z,100179.31
2023-04-05T15:04:45.475Z,100171.79
2023-04-05T15:07:17.849Z,100185.95
2023-04-05T15:09:50.033Z,100181.33
2023-04-05T15:12:22.364Z,100178.26
2023-04-05T15:14:54.736Z,100198.64
2023-04-05T15:17:27.174Z,100177.20
2023-04-05T15:19:59.899Z,100177.20
2023-04-05T15:22:33.041Z,100199.14
2023-04-05T15:25:06.242Z,100210.25
2023-04-05T15:27:38.318Z,100208.08
2023-04-05T15:30:11.407Z,100217.08
2023-04-05T15:32:44.036Z,100225.27
2023-04-05T15:35:16.456Z,100222.78
2023-04-05T15:37:48.809Z,100218.31
2023-04-05T15:40:21.389Z,100228.06
2023-04-05T15:42:55.182Z,100224.52
2023-04-05T15:45:27.515Z,100230.61
2023-04-05T15:48:00.048Z,100229.77
2023-04-05T15:50:32.765Z,100238.49
2023-04-05T15:53:05.062Z,100246.12
2023-04-05T15:55:37.133Z,100245.02
2023-04-05T15:58:09.302Z,100246.63
2023-04-05T16:00:41.838Z,100250.00
2023-04-05T16:03:14.607Z,100254.22
2023-04-05T16:05:46.798Z,100253.92
2023-04-05T16:08:18.935Z,100250.08
2023-04-05T16:10:51.169Z,100251.47
2023-04-05T16:13:23.424Z,100259.00
2023-04-05T16:15:55.793Z,100255.98
2023-04-05T16:18:29.792Z,100266.04
2023-04-05T16:21:02.029Z,100276.84
2023-04-05T16:23:34.245Z,100273.81
2023-04-05T16:26:06.535Z,100275.87
2023-04-05T16:28:38.674Z,100275.25
2023-04-05T16:31:11.199Z,100275.56
2023-04-05T16:33:43.302Z,100280.96
2023-04-05T16:36:15.459Z,100276.02
2023-04-05T16:38:47.635Z,100291.92
2023-04-05T16:41:19.932Z,100296.56
2023-04-05T16:43:53.337Z,100300.25
2023-04-05T16:46:26.591Z,100295.97
2023-04-05T16:48:59.707Z,100303.16
2023-04-05T16:51:32.012Z,100301.59
2023-04-05T16:54:04.171Z,100299.90
2023-04-05T16:56:37.169Z,100294.78
2023-04-05T16:59:09.930Z,100306.22
2023-04-05T17:01:42.662Z,100300.17
2023-04-05T17:04:15.463Z,100308.98
2023-04-05T17:06:47.991Z,100309.91
2023-04-05T17:09:21.793Z,100309.98
2023-04-05T17:11:53.878Z,100315.30
2023-04-05T17:14:26.667Z,100310.98
2023-04-05T17:16:59.201Z,100309.34
2023-04-05T17:19:31.714Z,100312.91
2023-04-05T17:22:03.678Z,100322.55
2023-04-05T17:24:37.087Z,100319.92
2023-04-05T17:27:09.085Z,100326.04
2023-04-05T17:29:41.355Z,100321.84
2023-04-05T17:32:13.577Z,100325.53
2023-04-05T17:34:45.774Z,100323.91
2023-04-05T17:37:17.846Z,100327.43
2023-04-05T17:39:50.116Z,100330.05
2023-04-05T17:42:22.727Z,100336.17
2023-04-05T17:44:56.621Z,100330.98
2023-04-05T17:47:29.223Z,100339.00
2023-04-05T17:50:01.291Z,100335.60
2023-04-05T17:52:33.531Z,100339.98
2023-04-05T17:55:06.385Z,100340.16
2023-04-05T17:57:38.566Z,100342.84
2023-04-05T18:00:12.156Z,100350.66
2023-04-05T18:02:45.614Z,100352.55
2023-04-05T18:05:18.240Z,100349.92
2023-04-05T18:07:50.654Z,100351.78
2023-04-05T18:10:23.764Z,100357.16
2023-04-05T18:12:55.972Z,100363.40
2023-04-05T18:15:28.253Z,100361.89
2023-04-05T18:18:00.558Z,100357.75
2023-04-05T18:20:33.370Z,100365.63
2023-04-05T18:23:05.507Z,100365.85
2023-04-05T18:25:37.641Z,100362.55
2023-04-05T18:28:21.292Z,100369.65
2023-04-05T18:30:44.450Z,100372.45
2023-04-05T18:33:17.582Z,100375.23
2023-04-05T18:35:53.107Z,100375.48
2023-04-05T18:38:25.571Z,100370.51
2023-04-05T18:41:04.173Z,100372.39
2023-04-05T18:43:36.313Z,100370.92
2023-04-05T18:46:08.536Z,100376.34
2023-04-05T18:48:40.665Z,100383.50
2023-04-05T18:51:12.639Z,100382.81
2023-04-05T18:53:44.944Z,100390.03
2023-04-05T18:56:16.991Z,100380.45
2023-04-05T18:58:51.211Z,100386.74
2023-04-05T19:01:23.681Z,100387.06
2023-04-05T19:03:56.290Z,100388.10
2023-04-05T19:06:28.323Z,100389.20
2023-04-05T19:09:00.590Z,100381.56
2023-04-05T19:11:33.040Z,100378.33
2023-04-05T19:14:05.287Z,100387.28
2023-04-05T19:16:37.900Z,100384.91
2023-04-05T19:19:10.139Z,100381.57
2023-04-05T19:21:42.459Z,100385.13
2023-04-05T19:24:15.167Z,100386.92
2023-04-05T19:26:47.686Z,100386.98
2023-04-05T19:29:19.680Z,100394.11
2023-04-05T19:31:52.183Z,100388.00
2023-04-05T19:34:24.298Z,100387.34
2023-04-05T19:36:56.555Z,100390.93
2023-04-05T19:39:28.743Z,100398.17
2023-04-05T19:42:00.612Z,100392.23
2023-04-05T19:44:44.612Z,100399.41
2023-04-05T19:47:18.063Z,100404.80
2023-04-05T19:49:51.352Z,100402.38
2023-04-05T19:52:38.340Z,100399.91
2023-04-05T19:55:27.926Z,100399.23
2023-04-05T19:58:02.212Z,100400.16
2023-04-05T20:00:39.760Z,100400.36
2023-04-05T20:03:31.803Z,100404.86
2023-04-05T20:06:14.906Z,100412.77
2023-04-05T20:08:48.314Z,100408.59
2023-04-05T20:11:23.825Z,100408.83
2023-04-05T20:13:59.115Z,100414.27
2023-04-05T20:16:36.419Z,100415.36
2023-04-05T20:19:12.319Z,100415.51
2023-04-05T20:21:44.565Z,100422.67
2023-04-05T20:24:19.395Z,100416.66
2023-04-05T20:26:53.180Z,100417.58
2023-04-05T20:29:32.392Z,100421.20
2023-04-05T20:32:07.520Z,100423.08
2023-04-05T20:34:39.889Z,100423.27
2023-04-05T20:37:13.589Z,100419.02
2023-04-05T20:39:45.886Z,100426.13
2023-04-05T20:42:18.172Z,100428.09
2023-04-05T20:44:50.387Z,100436.94
2023-04-05T20:47:22.577Z,100440.56
2023-04-05T20:49:54.725Z,100433.63
2023-04-05T20:52:28.094Z,100438.98
2023-04-05T20:55:02.702Z,100431.23
2023-04-05T20:57:35.060Z,100446.09
2023-04-05T21:00:08.659Z,100445.39
2023-04-05T21:02:40.995Z,100443.86
2023-04-05T21:05:13.320Z,100450.13
2023-04-05T21:07:45.891Z,100454.61
2023-04-05T21:10:18.747Z,100457.40
2023-04-05T21:12:53.300Z,100447.03
2023-04-05T21:15:27.716Z,100451.50
2023-04-05T21:18:02.514Z,100449.02
2023-04-05T21:20:35.786Z,100453.87
2023-04-05T21:23:08.012Z,100448.31
2023-04-05T21:25:40.276Z,100459.75
2023-04-05T21:28:13.135Z,100459.05
2023-04-05T21:30:46.102Z,100460.11
2023-04-05T21:33:18.881Z,100460.31
2023-04-05T21:35:51.203Z,100462.20
2023-04-05T21:38:23.611Z,100464.89
2023-04-05T21:40:55.898Z,100453.63
2023-04-05T21:43:28.125Z,100458.95
2023-04-05T21:46:00.291Z,100456.47
2023-04-05T21:48:32.608Z,100460.06
2023-04-05T21:51:04.897Z,100458.44
2023-04-05T21:53:37.539Z,100458.58
2023-04-05T21:56:09.808Z,100463.87
2023-04-05T21:58:43.018Z,100471.78
2023-04-05T22:01:15.487Z,100467.52
2023-04-05T22:03:47.566Z,100467.55
2023-04-05T22:06:19.679Z,100464.14
2023-04-05T22:08:53.399Z,100469.44
2023-04-05T22:11:26.404Z,100467.73
2023-04-05T22:13:58.546Z,100459.03
2023-04-05T22:16:30.664Z,100463.49
2023-04-05T22:19:02.790Z,100461.86
2023-04-05T22:21:34.841Z,100461.03
2023-04-05T22:24:07.021Z,100471.50
2023-04-05T22:26:40.493Z,100463.71
2023-04-05T22:29:12.518Z,100472.45
2023-04-05T22:31:44.693Z,100469.88
2023-04-05T22:34:17.037Z,100472.52
2023-04-05T22:36:48.987Z,100470.02
2023-04-05T22:39:21.024Z,100464.83
2023-04-05T22:41:53.256Z,100463.97
2023-04-05T22:44:25.492Z,100466.58
2023-04-05T22:46:57.883Z,100468.38
2023-04-05T22:49:30.282Z,100477.98
2023-04-05T22:52:02.305Z,100473.70
2023-04-05T22:54:34.388Z,100476.39
2023-04-05T22:57:06.442Z,100479.12
2023-04-05T22:59:40.795Z,100482.68
2023-04-05T23:02:12.982Z,100480.03
2023-04-05T23:04:45.110Z,100477.42
2023-04-05T23:07:17.057Z,100484.41
2023-04-05T23:09:49.299Z,100486.22
2023-04-05T23:12:21.510Z,100473.18
2023-04-05T23:14:53.619Z,100473.18
2023-04-05T23:17:25.748Z,100480.17
2023-04-05T23:19:57.764Z,100480.17
2023-04-05T23:22:29.747Z,100477.59
2023-04-05T23:25:02.618Z,100473.28
2023-04-05T23:27:34.809Z,100474.19
2023-04-05T23:30:08.206Z,100475.02
2023-04-05T23:32:40.331Z,100472.52
2023-04-05T23:35:12.480Z,100468.17
2023-04-05T23:37:45.911Z,100469.98
2023-04-05T23:40:18.230Z,100465.63
2023-04-05T23:42:50.551Z,100468.27
2023-04-05T23:45:22.610Z,100473.48
2023-04-05T23:47:55.697Z,100468.27
2023-04-05T23:50:27.902Z,100475.27
2023-04-05T23:53:01.513Z,100470.11
2023-04-05T23:55:35.472Z,100471.05
2023-04-05T23:58:09.336Z,100465.91
